Time;durP1;ratioP1;P1;durP2;ratioP2;P2;SDS_P1;SDS_P2;PMS_P1;PMS_P2;Temp;Humidity;BMP_temperature;BMP_pressure;BME280_temperature;BME280_humidity;BME280_pressure;Samples;Min_cycle;Max_cycle;Signal;HPM_P1;HPM_P2
2021/01/03 00:00:36;;;;;;;5.13;2.42;;;16.40;49.50;;;;;;6064024;23;20212;-82
2021/01/03 00:03:04;;;;;;;3.65;2.30;;;16.40;49.50;;;;;;6088142;23;20196;-81
2021/01/03 00:05:33;;;;;;;2.95;2.33;;;16.40;49.50;;;;;;6064036;23;20191;-82
2021/01/03 00:08:03;;;;;;;3.20;2.28;;;16.40;49.50;;;;;;6063602;23;20177;-82
2021/01/03 00:10:36;;;;;;;3.65;2.40;;;16.40;49.50;;;;;;6064332;23;20156;-82
2021/01/03 00:13:03;;;;;;;3.50;2.40;;;16.40;49.60;;;;;;6062437;23;20676;-82
2021/01/03 00:15:30;;;;;;;4.13;2.55;;;16.30;49.60;;;;;;6111786;23;20133;-82
2021/01/03 00:18:00;;;;;;;4.57;2.30;;;16.30;49.60;;;;;;6063558;23;20152;-82
2021/01/03 00:20:29;;;;;;;3.92;2.22;;;16.30;49.50;;;;;;6111118;23;20153;-82
2021/01/03 00:23:04;;;;;;;4.07;2.55;;;16.30;50.20;;;;;;6064204;23;20177;-82
2021/01/03 00:25:31;;;;;;;2.92;2.25;;;16.30;49.50;;;;;;6064108;23;20176;-82
2021/01/03 00:27:58;;;;;;;3.13;2.15;;;16.30;49.50;;;;;;6113019;23;20133;-82
2021/01/03 00:30:42;;;;;;;3.08;2.35;;;16.30;49.60;;;;;;6086636;23;20581;-82
2021/01/03 00:33:08;;;;;;;3.58;2.20;;;16.30;49.60;;;;;;6090865;23;20194;-82
2021/01/03 00:35:36;;;;;;;2.50;2.13;;;16.30;49.70;;;;;;6068337;23;20156;-82
2021/01/03 00:38:10;;;;;;;4.93;2.47;;;16.30;49.60;;;;;;6092318;23;20216;-82
2021/01/03 00:40:39;;;;;;;3.40;2.30;;;16.30;49.70;;;;;;6116870;23;20146;-82
2021/01/03 00:43:06;;;;;;;4.20;2.38;;;16.30;49.60;;;;;;6092045;23;20155;-82
2021/01/03 00:45:40;;;;;;;3.40;2.30;;;16.30;49.60;;;;;;6091891;23;20180;-82
2021/01/03 00:48:08;;;;;;;3.05;2.40;;;16.30;49.60;;;;;;6069517;23;20596;-82
2021/01/03 00:50:44;;;;;;;3.83;2.53;;;16.30;49.60;;;;;;6115170;23;20132;-82
2021/01/03 00:53:11;;;;;;;3.90;2.17;;;16.30;49.60;;;;;;6092579;23;20155;-82
2021/01/03 00:55:46;;;;;;;3.05;2.35;;;16.30;49.60;;;;;;6092029;23;20153;-82
2021/01/03 00:58:14;;;;;;;4.10;2.50;;;16.30;49.60;;;;;;6091348;23;20152;-82
2021/01/03 01:00:41;;;;;;;3.88;2.33;;;16.30;49.60;;;;;;6115278;23;20211;-82
2021/01/03 01:03:14;;;;;;;7.32;2.50;;;16.30;49.50;;;;;;6092303;23;20465;-82
2021/01/03 01:05:41;;;;;;;2.58;2.25;;;16.30;49.50;;;;;;6115181;23;20175;-82
2021/01/03 01:08:12;;;;;;;7.38;2.70;;;16.30;49.60;;;;;;6092172;23;20603;-82
2021/01/03 01:10:39;;;;;;;2.40;2.20;;;16.30;49.60;;;;;;6116075;23;20139;-82
2021/01/03 01:13:09;;;;;;;3.60;2.30;;;16.30;49.60;;;;;;6116128;23;20152;-82
2021/01/03 01:15:49;;;;;;;3.35;2.35;;;16.30;49.50;;;;;;6115932;23;20136;-82
2021/01/03 01:18:19;;;;;;;5.40;2.30;;;16.30;49.50;;;;;;6114871;23;20186;-82
2021/01/03 01:20:48;;;;;;;3.55;2.20;;;16.40;49.40;;;;;;6115668;23;20140;-82
2021/01/03 01:23:18;;;;;;;3.30;2.47;;;16.30;49.40;;;;;;6115604;23;20152;-83
2021/01/03 01:25:45;;;;;;;3.25;2.38;;;16.40;49.40;;;;;;6115823;23;20227;-82
2021/01/03 01:28:15;;;;;;;2.92;2.20;;;16.40;49.40;;;;;;6115551;23;20203;-82
2021/01/03 01:30:45;;;;;;;2.53;2.30;;;16.40;49.50;;;;;;6091768;23;20598;-82
2021/01/03 01:33:11;;;;;;;5.38;2.30;;;16.40;49.50;;;;;;6115189;23;20275;-83
2021/01/03 01:35:46;;;;;;;3.58;2.50;;;16.30;49.40;;;;;;6091825;23;20155;-82
2021/01/03 01:38:23;;;;;;;3.92;2.40;;;16.30;49.50;;;;;;6091488;23;20155;-82
2021/01/03 01:40:50;;;;;;;3.20;2.17;;;16.30;49.60;;;;;;6116027;23;20156;-84
2021/01/03 01:43:17;;;;;;;3.30;2.03;;;16.30;49.50;;;;;;6091715;23;20166;-82
2021/01/03 01:45:46;;;;;;;3.17;2.25;;;16.40;49.50;;;;;;6091509;23;20187;-82
2021/01/03 01:48:46;;;;;;;5.90;2.40;;;16.30;49.50;;;;;;6115228;23;20128;-82
2021/01/03 01:51:29;;;;;;;2.88;2.05;;;16.30;49.60;;;;;;6101560;23;20215;-82
2021/01/03 01:54:09;;;;;;;3.83;2.30;;;16.30;49.60;;;;;;6091421;23;20656;-82
2021/01/03 01:56:52;;;;;;;2.45;2.10;;;16.30;49.60;;;;;;6091336;23;20160;-82
2021/01/03 01:59:33;;;;;;;2.65;2.17;;;16.30;49.60;;;;;;6116201;23;20155;-82
2021/01/03 02:02:24;;;;;;;3.20;2.47;;;16.30;49.50;;;;;;6097992;23;20188;-82
2021/01/03 02:04:57;;;;;;;4.03;2.20;;;16.30;49.50;;;;;;6091087;23;20235;-83
2021/01/03 02:07:37;;;;;;;3.72;2.25;;;16.30;49.50;;;;;;6091310;23;20200;-82
2021/01/03 02:10:14;;;;;;;2.67;2.15;;;16.40;49.40;;;;;;6091599;23;20168;-82
2021/01/03 02:12:43;;;;;;;3.00;2.20;;;16.30;49.40;;;;;;6114832;23;20279;-82
2021/01/03 02:15:19;;;;;;;3.83;2.40;;;16.40;49.50;;;;;;6091815;23;20148;-82
2021/01/03 02:17:51;;;;;;;3.40;2.35;;;16.40;49.40;;;;;;6141343;23;20140;-82
2021/01/03 02:20:19;;;;;;;4.57;2.83;;;16.40;49.30;;;;;;6090566;23;20151;-82
2021/01/03 02:22:49;;;;;;;3.28;2.33;;;16.40;49.40;;;;;;6091356;23;20155;-82
2021/01/03 02:25:17;;;;;;;2.60;2.17;;;16.40;49.50;;;;;;6115750;23;20366;-82
2021/01/03 02:28:09;;;;;;;3.65;2.25;;;16.40;49.50;;;;;;6092079;23;20175;-82
2021/01/03 02:30:48;;;;;;;3.40;2.13;;;16.30;49.50;;;;;;6115855;23;20152;-82
2021/01/03 02:33:31;;;;;;;3.13;2.28;;;16.30;49.50;;;;;;6116949;23;20191;-82
2021/01/03 02:36:02;;;;;;;4.50;2.55;;;16.30;49.50;;;;;;6069150;23;20164;-82
2021/01/03 02:38:29;;;;;;;2.78;2.28;;;16.30;49.60;;;;;;6067973;23;20171;-82
2021/01/03 02:40:57;;;;;;;3.28;2.28;;;16.30;49.60;;;;;;6091400;23;20176;-83
2021/01/03 02:43:25;;;;;;;3.90;2.40;;;16.20;49.60;;;;;;6090720;23;20219;-82
2021/01/03 02:45:52;;;;;;;3.45;2.38;;;16.30;49.50;;;;;;6090830;23;20192;-82
2021/01/03 02:48:21;;;;;;;3.20;2.28;;;16.30;49.60;;;;;;6090968;23;20140;-84
2021/01/03 02:50:48;;;;;;;3.40;2.35;;;16.30;49.60;;;;;;6090942;23;20144;-82
2021/01/03 02:53:23;;;;;;;2.97;2.10;;;16.30;49.60;;;;;;6140288;23;20139;-82
2021/01/03 02:55:49;;;;;;;3.47;2.20;;;16.20;49.60;;;;;;6115591;23;20195;-82
2021/01/03 02:58:16;;;;;;;3.92;2.17;;;16.20;49.70;;;;;;6114992;23;20172;-82
2021/01/03 03:00:43;;;;;;;2.92;2.20;;;16.20;49.60;;;;;;6140864;23;20136;-82
2021/01/03 03:03:09;;;;;;;3.85;2.50;;;16.20;49.60;;;;;;6140583;23;20162;-82
2021/01/03 03:05:36;;;;;;;2.70;2.08;;;16.30;49.50;;;;;;6115090;23;20168;-82
2021/01/03 03:08:03;;;;;;;3.20;2.33;;;16.30;49.60;;;;;;6091113;23;20177;-82
2021/01/03 03:10:30;;;;;;;4.50;2.25;;;16.30;49.60;;;;;;6140988;23;20132;-82
2021/01/03 03:12:58;;;;;;;3.42;2.45;;;16.30;49.60;;;;;;6141303;23;20146;-82
2021/01/03 03:15:26;;;;;;;5.03;2.38;;;16.30;49.70;;;;;;6115619;23;20139;-83
2021/01/03 03:17:53;;;;;;;2.60;2.10;;;16.30;49.60;;;;;;6115358;23;20517;-82
2021/01/03 03:20:19;;;;;;;2.45;2.15;;;16.30;49.50;;;;;;6140691;23;20133;-82
2021/01/03 03:22:45;;;;;;;3.25;2.40;;;16.30;49.50;;;;;;6140521;23;20137;-82
2021/01/03 03:25:21;;;;;;;2.80;2.30;;;16.30;49.50;;;;;;6140577;23;20549;-82
2021/01/03 03:27:56;;;;;;;3.22;2.20;;;16.30;49.60;;;;;;6115422;23;20136;-82
2021/01/03 03:30:23;;;;;;;2.90;2.30;;;16.30;49.60;;;;;;6142627;23;20132;-82
2021/01/03 03:32:52;;;;;;;5.50;2.35;;;16.30;49.60;;;;;;6094226;23;20151;-82
2021/01/03 03:35:27;;;;;;;3.25;2.40;;;16.30;49.50;;;;;;6117852;23;20144;-82
2021/01/03 03:37:54;;;;;;;3.92;2.20;;;16.20;49.60;;;;;;6117657;23;20143;-83
2021/01/03 03:40:26;;;;;;;3.55;2.20;;;16.30;49.60;;;;;;6117271;23;20464;-82
2021/01/03 03:42:52;;;;;;;2.80;2.10;;;16.30;49.60;;;;;;6142203;23;20143;-82
2021/01/03 03:45:19;;;;;;;4.22;2.15;;;16.30;49.60;;;;;;6142881;23;20251;-83
2021/01/03 03:47:45;;;;;;;2.90;1.98;;;16.30;49.50;;;;;;6143112;23;20573;-82
2021/01/03 03:50:23;;;;;;;3.75;2.50;;;16.30;49.40;;;;;;6142363;23;20132;-82
2021/01/03 03:52:57;;;;;;;3.38;2.25;;;16.30;49.40;;;;;;6117329;23;20196;-82
2021/01/03 03:55:32;;;;;;;3.65;2.13;;;16.30;49.50;;;;;;6143365;23;20135;-82
2021/01/03 03:58:06;;;;;;;3.30;2.38;;;16.30;49.50;;;;;;6117008;23;20571;-82
2021/01/03 04:00:33;;;;;;;3.22;2.20;;;16.30;49.60;;;;;;6142441;23;20136;-83
2021/01/03 04:03:00;;;;;;;2.78;2.30;;;16.30;49.50;;;;;;6143389;23;20137;-82
2021/01/03 04:05:26;;;;;;;3.28;2.25;;;16.30;49.60;;;;;;6116340;23;20170;-82
2021/01/03 04:07:53;;;;;;;3.30;2.10;;;16.30;49.60;;;;;;6116429;23;20136;-82
2021/01/03 04:10:20;;;;;;;3.92;2.28;;;16.30;49.60;;;;;;6142444;23;20152;-82
2021/01/03 04:12:47;;;;;;;4.13;2.63;;;16.20;49.50;;;;;;6116474;23;20211;-82
2021/01/03 04:15:16;;;;;;;2.35;2.10;;;16.30;49.60;;;;;;6116684;23;20136;-82
2021/01/03 04:17:50;;;;;;;2.65;2.10;;;16.30;49.60;;;;;;6141950;23;20211;-82
2021/01/03 04:20:18;;;;;;;3.58;2.30;;;16.30;49.50;;;;;;6142247;23;20136;-82
2021/01/03 04:22:44;;;;;;;2.30;2.00;;;16.30;49.40;;;;;;6142405;23;20473;-82
2021/01/03 04:25:13;;;;;;;3.10;2.03;;;16.30;49.40;;;;;;6142227;23;20133;-82
2021/01/03 04:27:41;;;;;;;3.78;2.17;;;16.30;49.50;;;;;;6115797;23;20144;-82
2021/01/03 04:30:15;;;;;;;2.30;1.90;;;16.30;49.50;;;;;;6142135;23;20158;-82
2021/01/03 04:32:42;;;;;;;3.33;2.40;;;16.30;49.50;;;;;;6142206;23;20143;-82
2021/01/03 04:35:10;;;;;;;2.72;2.30;;;16.30;49.50;;;;;;6141888;23;20195;-82
2021/01/03 04:37:37;;;;;;;2.80;2.38;;;16.30;49.40;;;;;;6141826;23;20149;-82
2021/01/03 04:40:06;;;;;;;2.95;2.17;;;16.30;49.40;;;;;;6115917;23;20132;-82
2021/01/03 04:42:33;;;;;;;2.67;2.38;;;16.30;49.50;;;;;;6142494;23;20137;-82
2021/01/03 04:45:02;;;;;;;3.08;2.25;;;16.30;49.50;;;;;;6116247;23;20573;-82
2021/01/03 04:47:50;;;;;;;2.83;2.30;;;16.30;49.50;;;;;;6116722;23;20137;-82
2021/01/03 04:50:30;;;;;;;4.05;2.20;;;16.30;49.60;;;;;;6141686;23;20136;-82
2021/01/03 04:53:20;;;;;;;3.35;2.25;;;16.30;50.20;;;;;;6141802;23;20147;-82
2021/01/03 04:55:56;;;;;;;2.75;2.30;;;16.20;49.60;;;;;;6141735;23;20224;-82
2021/01/03 04:59:01;;;;;;;2.13;1.92;;;16.20;49.70;;;;;;6142257;23;20147;-82
2021/01/03 05:01:58;;;;;;;2.35;2.00;;;16.20;49.70;;;;;;6136933;23;20144;-82
2021/01/03 05:04:52;;;;;;;3.05;2.30;;;16.20;49.70;;;;;;6115985;23;20160;-82
2021/01/03 05:07:39;;;;;;;4.45;2.25;;;16.30;49.70;;;;;;6141919;23;20168;-82
2021/01/03 05:10:20;;;;;;;2.45;2.25;;;16.20;49.60;;;;;;6113395;23;20162;-82
2021/01/03 05:13:24;;;;;;;2.72;1.95;;;16.30;49.60;;;;;;6115836;23;20152;-82
2021/01/03 05:15:50;;;;;;;2.85;2.20;;;16.20;49.60;;;;;;6134134;23;20147;-82
2021/01/03 05:18:17;;;;;;;4.38;2.25;;;16.30;49.60;;;;;;6141881;23;20227;-82
2021/01/03 05:21:06;;;;;;;3.50;2.10;;;16.30;49.60;;;;;;6141610;23;20136;-82
2021/01/03 05:23:34;;;;;;;2.63;2.10;;;16.30;49.50;;;;;;6141925;23;20182;-82
2021/01/03 05:26:01;;;;;;;3.30;2.00;;;16.30;49.40;;;;;;6115888;23;20224;-82
2021/01/03 05:28:31;;;;;;;4.88;2.13;;;16.30;49.50;;;;;;6091756;23;20576;-82
2021/01/03 05:31:13;;;;;;;2.78;2.15;;;16.30;49.40;;;;;;6142370;23;20139;-82
2021/01/03 05:33:49;;;;;;;2.45;2.20;;;16.30;49.40;;;;;;6141149;23;20183;-82
2021/01/03 05:36:30;;;;;;;2.90;2.38;;;16.30;49.50;;;;;;6092072;23;20156;-82
2021/01/03 05:38:56;;;;;;;3.35;2.00;;;16.30;49.50;;;;;;6141078;23;20143;-82
2021/01/03 05:42:14;;;;;;;2.45;2.10;;;16.30;49.50;;;;;;6141101;23;20144;-82
2021/01/03 05:44:43;;;;;;;2.70;2.25;;;16.30;49.50;;;;;;6129721;23;20163;-82
2021/01/03 05:47:41;;;;;;;3.30;2.47;;;16.30;49.50;;;;;;6092358;23;20182;-82
2021/01/03 05:50:13;;;;;;;3.55;2.20;;;16.20;49.60;;;;;;6113718;23;20192;-83
2021/01/03 05:53:10;;;;;;;2.40;2.20;;;16.20;49.60;;;;;;6115666;23;20148;-82
2021/01/03 05:55:51;;;;;;;2.70;2.20;;;16.20;49.60;;;;;;6090910;23;20149;-82
2021/01/03 05:58:22;;;;;;;3.30;2.55;;;16.30;49.60;;;;;;6116535;23;20152;-82
2021/01/03 06:00:52;;;;;;;3.15;2.20;;;16.30;49.50;;;;;;6115625;23;20139;-83
2021/01/03 06:03:25;;;;;;;2.80;2.30;;;16.20;49.60;;;;;;6092158;23;20152;-82
2021/01/03 06:06:24;;;;;;;4.57;2.20;;;16.20;49.60;;;;;;6091676;23;20172;-82
2021/01/03 06:08:57;;;;;;;2.55;2.22;;;16.20;49.50;;;;;;5976579;23;20154;-82
2021/01/03 06:11:23;;;;;;;3.38;2.40;;;16.30;49.50;;;;;;6000557;23;20159;-82
2021/01/03 06:13:55;;;;;;;4.47;2.13;;;16.20;49.50;;;;;;5976129;23;20218;-83
2021/01/03 06:16:30;;;;;;;2.65;2.05;;;16.20;50.20;;;;;;6000305;23;20536;-82
2021/01/03 06:19:16;;;;;;;3.20;2.38;;;16.30;49.60;;;;;;5999770;23;20150;-82
2021/01/03 06:21:52;;;;;;;3.13;2.35;;;16.20;49.50;;;;;;5999645;23;20158;-82
2021/01/03 06:24:22;;;;;;;2.63;2.15;;;16.20;49.60;;;;;;6000511;23;20237;-83
2021/01/03 06:27:14;;;;;;;2.70;2.25;;;16.20;49.60;;;;;;5999872;23;20186;-82
2021/01/03 06:29:48;;;;;;;2.80;2.20;;;16.20;49.60;;;;;;5999017;23;20216;-82
2021/01/03 06:32:50;;;;;;;3.30;2.13;;;16.20;49.60;;;;;;6000019;23;20150;-82
2021/01/03 06:35:31;;;;;;;3.67;2.05;;;16.20;49.60;;;;;;6023181;23;20226;-83
2021/01/03 06:38:34;;;;;;;2.90;2.00;;;16.20;49.40;;;;;;5954288;23;20154;-82
2021/01/03 06:41:44;;;;;;;2.45;2.15;;;16.20;49.50;;;;;;6000449;23;20166;-82
2021/01/03 06:44:36;;;;;;;2.20;1.98;;;16.20;49.60;;;;;;5939387;24;20161;-82
2021/01/03 06:47:51;;;;;;;3.53;2.30;;;16.20;49.50;;;;;;5999166;23;20245;-82
2021/01/03 06:50:25;;;;;;;3.28;2.20;;;16.30;49.50;;;;;;5939626;24;20527;-82
2021/01/03 06:52:57;;;;;;;2.20;2.00;;;16.30;49.50;;;;;;5916602;24;20190;-83
2021/01/03 06:55:41;;;;;;;3.45;2.00;;;16.20;49.60;;;;;;5916845;24;20187;-82
2021/01/03 06:58:25;;;;;;;2.33;2.10;;;16.20;49.50;;;;;;5917521;24;20156;-82
2021/01/03 07:01:27;;;;;;;3.15;2.10;;;16.20;49.50;;;;;;5916203;24;20161;-82
2021/01/03 07:04:15;;;;;;;3.40;2.17;;;16.30;49.60;;;;;;5916507;24;20144;-82
2021/01/03 07:07:02;;;;;;;2.75;2.17;;;16.30;49.60;;;;;;5916674;24;20192;-82
2021/01/03 07:10:13;;;;;;;3.10;2.05;;;16.30;49.60;;;;;;5916486;24;20182;-83
2021/01/03 07:13:02;;;;;;;4.55;2.55;;;16.30;49.50;;;;;;5934835;24;20152;-82
2021/01/03 07:15:28;;;;;;;2.20;1.90;;;16.30;49.40;;;;;;5917069;24;20141;-82
2021/01/03 07:17:57;;;;;;;2.13;1.85;;;16.30;49.50;;;;;;5917120;24;20486;-82
2021/01/03 07:20:51;;;;;;;3.03;2.10;;;16.20;49.40;;;;;;5957984;23;20245;-82
2021/01/03 07:23:37;;;;;;;2.65;2.00;;;16.30;49.50;;;;;;6024313;23;20219;-82
2021/01/03 07:26:24;;;;;;;2.35;2.13;;;16.30;49.40;;;;;;6045979;23;20210;-83
2021/01/03 07:29:13;;;;;;;2.78;2.00;;;16.30;49.30;;;;;;6113685;23;20148;-83
2021/01/03 07:32:00;;;;;;;2.83;2.22;;;16.30;49.50;;;;;;6113955;23;20195;-83
2021/01/03 07:34:50;;;;;;;2.72;2.20;;;16.30;49.40;;;;;;6107263;23;20644;-82
2021/01/03 07:37:41;;;;;;;4.05;2.20;;;16.30;49.30;;;;;;6108763;23;20188;-83
2021/01/03 07:40:27;;;;;;;3.40;2.15;;;16.30;49.30;;;;;;6109243;23;20183;-82
2021/01/03 07:42:57;;;;;;;3.10;2.10;;;16.30;49.40;;;;;;6084328;23;20184;-83
2021/01/03 07:45:32;;;;;;;4.25;2.15;;;16.30;49.40;;;;;;6107705;23;20168;-82
2021/01/03 07:47:58;;;;;;;2.22;2.00;;;16.30;49.40;;;;;;6108726;23;20132;-82
2021/01/03 07:50:24;;;;;;;2.92;2.00;;;16.30;49.30;;;;;;6082146;23;20557;-82
2021/01/03 07:53:25;;;;;;;3.10;2.20;;;16.30;49.40;;;;;;6105651;23;20193;-82
2021/01/03 07:55:51;;;;;;;3.10;2.00;;;16.30;49.40;;;;;;6106315;23;20137;-83
2021/01/03 07:58:19;;;;;;;2.78;2.10;;;16.20;49.60;;;;;;6080642;23;20141;-82
2021/01/03 08:00:51;;;;;;;3.53;2.47;;;16.20;49.60;;;;;;6107039;23;20152;-82
2021/01/03 08:03:21;;;;;;;2.60;1.95;;;16.20;49.60;;;;;;6104302;23;20205;-82
2021/01/03 08:05:47;;;;;;;3.85;2.08;;;16.20;49.70;;;;;;6105998;23;20172;-82
2021/01/03 08:08:21;;;;;;;3.67;2.20;;;16.20;49.70;;;;;;6103228;23;20138;-82
2021/01/03 08:11:23;;;;;;;2.28;2.08;;;16.20;49.40;;;;;;6106170;23;20276;-82
2021/01/03 08:13:50;;;;;;;3.40;2.25;;;16.20;49.50;;;;;;6103076;23;20159;-83
2021/01/03 08:16:23;;;;;;;2.88;2.20;;;16.20;49.60;;;;;;6080878;23;20137;-82
2021/01/03 08:18:58;;;;;;;3.60;2.20;;;16.20;49.40;;;;;;6083073;23;20232;-82
2021/01/03 08:21:25;;;;;;;3.35;2.10;;;16.30;49.30;;;;;;6108588;23;20164;-82
2021/01/03 08:23:51;;;;;;;3.15;2.08;;;16.30;49.50;;;;;;6106900;23;20513;-82
2021/01/03 08:26:20;;;;;;;3.70;2.05;;;16.30;49.50;;;;;;6108221;23;20224;-82
2021/01/03 08:28:52;;;;;;;2.50;1.98;;;16.30;49.40;;;;;;6108751;23;20200;-82
2021/01/03 08:31:19;;;;;;;2.35;1.88;;;16.20;49.50;;;;;;6109293;23;20144;-82
2021/01/03 08:33:50;;;;;;;3.00;2.00;;;16.20;49.60;;;;;;6083465;23;20200;-83
2021/01/03 08:36:31;;;;;;;3.45;2.15;;;16.20;49.60;;;;;;6061796;23;20172;-81
2021/01/03 08:39:22;;;;;;;4.30;2.25;;;16.20;49.60;;;;;;6085559;23;20216;-82
2021/01/03 08:41:58;;;;;;;3.13;2.17;;;16.20;49.50;;;;;;6081720;23;20184;-82
2021/01/03 08:44:26;;;;;;;2.97;2.10;;;16.20;49.50;;;;;;6110614;23;20176;-83
2021/01/03 08:47:11;;;;;;;3.85;2.30;;;16.30;49.40;;;;;;6108124;23;20176;-83
2021/01/03 08:49:46;;;;;;;2.65;2.08;;;16.30;49.40;;;;;;6110817;23;20210;-82
2021/01/03 08:52:19;;;;;;;2.13;1.92;;;16.30;49.30;;;;;;6108467;23;20140;-82
2021/01/03 08:54:50;;;;;;;2.50;2.20;;;16.30;49.30;;;;;;6106903;23;20134;-82
2021/01/03 08:57:17;;;;;;;3.03;2.17;;;16.30;49.30;;;;;;6107142;23;20450;-81
2021/01/03 08:59:44;;;;;;;3.85;2.40;;;16.30;49.30;;;;;;6101959;23;20656;-81
2021/01/03 09:02:30;;;;;;;2.35;1.90;;;16.30;49.30;;;;;;6103413;23;20236;-82
2021/01/03 09:05:16;;;;;;;4.18;2.00;;;16.30;49.50;;;;;;6101416;23;20141;-81
2021/01/03 09:07:43;;;;;;;2.10;1.80;;;16.30;49.40;;;;;;6100510;23;20200;-81
2021/01/03 09:10:19;;;;;;;2.85;2.00;;;16.30;49.30;;;;;;6102287;23;20133;-81
2021/01/03 09:12:46;;;;;;;3.08;1.90;;;16.30;49.30;;;;;;6103036;23;20157;-81
2021/01/03 09:15:20;;;;;;;3.72;2.13;;;16.40;49.30;;;;;;6103577;23;20203;-81
2021/01/03 09:18:05;;;;;;;2.40;2.00;;;16.40;49.20;;;;;;6083855;23;20140;-81
2021/01/03 09:20:40;;;;;;;4.43;2.10;;;16.30;49.40;;;;;;6105440;23;20129;-82
2021/01/03 09:23:13;;;;;;;6.05;2.35;;;16.30;49.40;;;;;;6080461;23;20302;-81
2021/01/03 09:25:40;;;;;;;2.65;2.08;;;16.30;49.50;;;;;;6102889;23;20181;-81
2021/01/03 09:28:17;;;;;;;3.38;2.15;;;16.30;49.60;;;;;;6102275;23;20133;-81
2021/01/03 09:30:44;;;;;;;3.55;2.00;;;16.30;50.10;;;;;;6104513;23;20137;-81
2021/01/03 09:33:25;;;;;;;2.78;1.80;;;16.30;49.50;;;;;;6108660;23;20561;-81
2021/01/03 09:36:03;;;;;;;4.35;2.28;;;16.30;49.40;;;;;;6109091;23;20191;-82
2021/01/03 09:38:34;;;;;;;3.15;1.98;;;16.30;49.50;;;;;;6135089;23;20219;-81
2021/01/03 09:41:04;;;;;;;3.75;2.22;;;16.20;49.60;;;;;;6135554;23;20136;-81
2021/01/03 09:43:38;;;;;;;2.40;2.00;;;16.20;49.60;;;;;;6135619;23;20140;-81
2021/01/03 09:46:19;;;;;;;2.58;2.00;;;16.30;49.60;;;;;;6135365;23;20600;-81
2021/01/03 09:48:53;;;;;;;4.32;2.00;;;16.30;49.50;;;;;;6136286;23;20140;-82
2021/01/03 09:51:57;;;;;;;4.35;2.10;;;16.30;49.60;;;;;;6135085;23;20139;-82
2021/01/03 09:54:24;;;;;;;2.67;1.80;;;16.30;49.60;;;;;;6135921;23;20136;-82
2021/01/03 09:56:51;;;;;;;2.33;2.13;;;16.30;49.60;;;;;;6108509;23;20137;-81
2021/01/03 09:59:37;;;;;;;2.42;2.10;;;16.30;49.60;;;;;;6108779;23;20215;-81
2021/01/03 10:02:17;;;;;;;5.47;1.90;;;16.30;49.70;;;;;;6130776;23;20195;-81
2021/01/03 10:04:44;;;;;;;2.50;2.22;;;16.30;49.60;;;;;;6107733;23;20174;-80
2021/01/03 10:07:18;;;;;;;2.63;2.03;;;16.30;49.60;;;;;;6108322;23;20547;-82
2021/01/03 10:10:06;;;;;;;3.45;2.03;;;16.30;49.60;;;;;;6132572;23;20140;-80
2021/01/03 10:12:35;;;;;;;3.65;2.20;;;16.20;49.60;;;;;;6102295;23;20533;-78
2021/01/03 10:15:01;;;;;;;2.42;2.10;;;16.20;49.60;;;;;;6130018;23;20497;-79
2021/01/03 10:17:38;;;;;;;4.05;2.00;;;16.30;49.70;;;;;;6129298;23;20227;-79
2021/01/03 10:20:36;;;;;;;3.47;2.28;;;16.20;49.70;;;;;;6131126;23;20144;-79
2021/01/03 10:23:03;;;;;;;2.72;1.92;;;16.20;49.70;;;;;;6131441;23;20136;-79
2021/01/03 10:25:29;;;;;;;2.60;1.85;;;16.20;49.80;;;;;;6132367;23;20176;-80
2021/01/03 10:28:14;;;;;;;3.08;1.90;;;16.30;49.70;;;;;;6131352;23;20183;-78
2021/01/03 10:30:49;;;;;;;2.47;2.00;;;16.20;49.70;;;;;;6086040;23;20156;-80
2021/01/03 10:33:15;;;;;;;2.40;2.20;;;16.30;49.60;;;;;;6109604;23;20256;-80
2021/01/03 10:35:42;;;;;;;4.85;2.10;;;16.30;49.60;;;;;;6083663;23;20584;-80
2021/01/03 10:38:08;;;;;;;2.60;1.80;;;16.30;49.50;;;;;;6108763;23;20132;-80
2021/01/03 10:40:35;;;;;;;2.33;2.08;;;16.40;49.40;;;;;;6134545;23;20136;-80
2021/01/03 10:43:02;;;;;;;3.58;1.77;;;16.40;49.20;;;;;;6134327;23;20140;-80
2021/01/03 10:45:29;;;;;;;3.58;2.25;;;16.40;49.20;;;;;;6108442;23;20179;-80
2021/01/03 10:47:55;;;;;;;2.30;2.10;;;16.40;49.30;;;;;;6108327;23;20143;-80
2021/01/03 10:50:22;;;;;;;3.42;2.08;;;16.40;49.30;;;;;;6107811;23;20132;-80
2021/01/03 10:52:48;;;;;;;3.22;2.22;;;16.40;49.30;;;;;;6134255;23;20203;-80
2021/01/03 10:55:16;;;;;;;2.90;2.13;;;16.40;49.30;;;;;;6109207;23;20152;-80
2021/01/03 10:57:43;;;;;;;3.08;2.40;;;16.40;49.30;;;;;;6134310;23;20133;-81
2021/01/03 11:00:13;;;;;;;2.95;1.90;;;16.40;49.30;;;;;;6134278;23;20136;-81
2021/01/03 11:02:40;;;;;;;3.38;2.03;;;16.40;49.20;;;;;;6134176;23;20146;-81
2021/01/03 11:05:08;;;;;;;3.05;2.30;;;16.40;49.20;;;;;;6134266;23;20192;-80
2021/01/03 11:07:35;;;;;;;7.35;2.67;;;16.40;49.20;;;;;;6108088;23;20144;-80
2021/01/03 11:10:03;;;;;;;3.05;2.10;;;16.50;49.20;;;;;;6133110;23;20131;-80
2021/01/03 11:12:29;;;;;;;9.13;2.30;;;16.50;49.10;;;;;;6133552;23;20159;-79
2021/01/03 11:15:04;;;;;;;8.00;2.17;;;16.50;49.30;;;;;;6133431;23;20140;-81
2021/01/03 11:17:31;;;;;;;6.43;2.33;;;16.40;49.40;;;;;;6137205;23;20152;-81
2021/01/03 11:19:57;;;;;;;10.23;2.30;;;16.50;49.20;;;;;;6137985;23;20167;-80
2021/01/03 11:22:24;;;;;;;4.65;2.40;;;16.50;49.20;;;;;;6111588;23;20175;-81
2021/01/03 11:24:50;;;;;;;7.85;2.60;;;16.50;49.30;;;;;;6136307;23;20128;-80
2021/01/03 11:27:19;;;;;;;3.80;2.08;;;16.40;49.40;;;;;;6111279;23;20182;-80
2021/01/03 11:29:45;;;;;;;8.98;2.10;;;16.40;49.60;;;;;;6107650;23;20199;-80
2021/01/03 11:32:14;;;;;;;4.03;2.20;;;16.40;49.40;;;;;;6133361;23;20227;-80
2021/01/03 11:34:41;;;;;;;6.20;1.95;;;16.40;49.50;;;;;;6133787;23;20191;-80
2021/01/03 11:37:09;;;;;;;5.10;2.00;;;16.40;49.50;;;;;;6133413;23;20140;-80
2021/01/03 11:39:35;;;;;;;4.78;2.22;;;16.40;49.60;;;;;;6107179;23;20215;-80
2021/01/03 11:42:10;;;;;;;6.65;2.08;;;16.40;49.50;;;;;;6089381;23;20199;-80
2021/01/03 11:44:37;;;;;;;10.20;2.25;;;16.40;49.50;;;;;;6090045;23;20179;-80
2021/01/03 11:47:08;;;;;;;4.22;2.08;;;16.40;49.70;;;;;;6090557;23;20168;-80
2021/01/03 11:49:36;;;;;;;2.20;1.95;;;16.40;49.60;;;;;;6140873;23;20207;-80
2021/01/03 11:52:12;;;;;;;8.90;2.30;;;16.40;49.50;;;;;;6116684;23;20258;-80
2021/01/03 11:54:37;;;;;;;5.22;1.98;;;16.50;49.30;;;;;;6116276;23;20151;-80
2021/01/03 11:57:04;;;;;;;5.38;2.25;;;16.60;49.10;;;;;;6117450;23;20168;-80
2021/01/03 11:59:32;;;;;;;5.43;2.10;;;16.60;49.10;;;;;;6116564;23;20144;-80
2021/01/03 12:02:19;;;;;;;4.60;1.95;;;16.60;49.00;;;;;;6141556;23;20137;-79
2021/01/03 12:04:45;;;;;;;4.88;2.20;;;16.60;49.00;;;;;;6136363;23;20524;-79
2021/01/03 12:07:16;;;;;;;12.68;1.92;;;16.60;48.90;;;;;;6141181;23;20200;-80
2021/01/03 12:09:43;;;;;;;3.70;2.20;;;16.60;49.00;;;;;;6116877;23;20136;-80
2021/01/03 12:12:12;;;;;;;4.68;2.05;;;16.60;49.10;;;;;;6117991;23;20214;-80
2021/01/03 12:14:39;;;;;;;4.18;2.17;;;16.60;49.10;;;;;;6116807;23;20573;-80
2021/01/03 12:17:10;;;;;;;2.78;2.00;;;16.50;49.10;;;;;;6141676;23;20132;-79
2021/01/03 12:19:37;;;;;;;10.68;2.17;;;16.60;49.10;;;;;;6092299;23;20156;-80
2021/01/03 12:22:06;;;;;;;6.20;2.08;;;16.60;49.10;;;;;;6142188;23;20603;-80
2021/01/03 12:24:34;;;;;;;8.00;2.42;;;16.50;49.20;;;;;;6116020;23;20136;-81
2021/01/03 12:26:59;;;;;;;6.15;2.40;;;16.60;49.20;;;;;;6091879;23;20615;-80
2021/01/03 12:29:29;;;;;;;13.20;2.72;;;16.60;49.30;;;;;;6116536;23;20139;-80
2021/01/03 12:32:00;;;;;;;7.78;2.10;;;16.60;49.40;;;;;;6091523;23;20150;-80
2021/01/03 12:34:27;;;;;;;11.85;2.60;;;16.50;49.40;;;;;;6115617;23;20192;-80
2021/01/03 12:37:06;;;;;;;13.32;2.20;;;16.50;49.30;;;;;;6142250;23;20207;-80
2021/01/03 12:39:42;;;;;;;7.25;2.13;;;16.50;49.30;;;;;;6141814;23;20136;-80
2021/01/03 12:42:11;;;;;;;13.38;2.47;;;16.60;49.30;;;;;;6115989;23;20159;-80
2021/01/03 12:44:36;;;;;;;10.45;2.40;;;16.60;49.20;;;;;;6143092;23;20204;-80
2021/01/03 12:47:02;;;;;;;10.50;2.40;;;16.60;49.20;;;;;;6142375;23;20164;-80
2021/01/03 12:49:28;;;;;;;5.72;2.42;;;16.60;49.20;;;;;;6116266;23;20217;-80
2021/01/03 12:51:54;;;;;;;4.35;2.20;;;16.60;49.20;;;;;;6141631;23;20189;-80
2021/01/03 12:54:21;;;;;;;10.35;2.40;;;16.60;49.20;;;;;;6142008;23;20152;-80
2021/01/03 12:56:47;;;;;;;8.32;2.15;;;16.60;49.20;;;;;;6115065;23;20187;-80
2021/01/03 12:59:15;;;;;;;4.32;1.90;;;16.60;49.10;;;;;;6141681;23;20137;-80
2021/01/03 13:01:43;;;;;;;14.73;2.45;;;16.60;49.10;;;;;;6115661;23;20143;-80
2021/01/03 13:04:10;;;;;;;6.45;2.20;;;16.70;49.10;;;;;;6141440;23;20136;-80
2021/01/03 13:06:40;;;;;;;8.43;1.98;;;16.70;49.10;;;;;;6116323;23;20160;-80
2021/01/03 13:09:07;;;;;;;8.38;2.33;;;16.70;49.00;;;;;;6141759;23;20467;-80
2021/01/03 13:11:35;;;;;;;10.40;2.05;;;16.80;48.90;;;;;;6142029;23;20139;-80
2021/01/03 13:14:03;;;;;;;12.93;2.30;;;16.70;49.10;;;;;;6116189;23;20184;-80
2021/01/03 13:16:32;;;;;;;10.38;2.10;;;16.70;49.10;;;;;;6116718;23;20147;-80
2021/01/03 13:18:58;;;;;;;8.55;2.40;;;16.70;49.30;;;;;;6141868;23;20147;-80